createdAt,value
2023-02-03T00:00:03.158Z,122.80
2023-02-03T00:02:59.321Z,114.97
2023-02-03T00:05:27.729Z,123.95
2023-02-03T00:07:56.214Z,130.43
2023-02-03T00:10:24.594Z,135.90
2023-02-03T00:12:56.417Z,142.80
2023-02-03T00:15:24.077Z,119.50
2023-02-03T00:17:52.022Z,132.35
2023-02-03T00:20:20.047Z,128.13
2023-02-03T00:22:48.018Z,130.48
2023-02-03T00:25:15.878Z,129.73
2023-02-03T00:27:44.686Z,107.95
2023-02-03T00:30:13.262Z,118.28
2023-02-03T00:32:41.282Z,122.05
2023-02-03T00:35:09.049Z,122.65
2023-02-03T00:37:37.940Z,121.97
2023-02-03T00:40:06.207Z,139.73
2023-02-03T00:42:37.300Z,122.40
2023-02-03T00:45:06.291Z,126.18
2023-02-03T00:47:34.389Z,117.55
2023-02-03T00:50:02.187Z,105.88
2023-02-03T00:52:30.220Z,111.03
2023-02-03T00:54:58.184Z,129.00
2023-02-03T00:57:26.246Z,110.93
2023-02-03T00:59:55.191Z,96.75
2023-02-03T01:02:23.396Z,90.78
2023-02-03T01:04:53.368Z,93.07
2023-02-03T01:07:21.669Z,92.18
2023-02-03T01:09:49.920Z,72.22
2023-02-03T01:12:17.959Z,84.30
2023-02-03T01:14:45.670Z,74.68
2023-02-03T01:17:13.651Z,74.20
2023-02-03T01:19:41.305Z,93.35
2023-02-03T01:22:09.310Z,82.57
2023-02-03T01:24:37.025Z,84.65
2023-02-03T01:27:06.781Z,80.45
2023-02-03T01:29:34.750Z,84.53
2023-02-03T01:32:03.304Z,84.18
2023-02-03T01:34:31.179Z,82.95
2023-02-03T01:37:00.569Z,89.18
2023-02-03T01:39:29.300Z,71.95
2023-02-03T01:41:57.689Z,83.57
2023-02-03T01:44:47.644Z,84.97
2023-02-03T01:47:36.441Z,89.40
2023-02-03T01:50:29.507Z,85.18
2023-02-03T01:53:02.238Z,70.60
2023-02-03T01:55:50.734Z,83.78
2023-02-03T01:58:24.970Z,82.50
2023-02-03T02:03:40.611Z,85.93
2023-02-03T02:06:11.308Z,70.65
2023-02-03T02:08:45.344Z,86.28
2023-02-03T02:11:13.516Z,67.22
2023-02-03T02:13:44.460Z,74.85
2023-02-03T02:16:42.743Z,75.38
2023-02-03T02:19:20.001Z,93.30
2023-02-03T02:22:06.052Z,91.90
2023-02-03T02:24:55.183Z,95.07
2023-02-03T02:28:04.363Z,87.53
2023-02-03T02:30:52.084Z,88.40
2023-02-03T02:33:58.274Z,86.90
2023-02-03T02:36:33.468Z,91.38
2023-02-03T02:39:15.663Z,103.30
2023-02-03T02:41:56.550Z,111.40
2023-02-03T02:44:32.280Z,107.18
2023-02-03T02:47:07.190Z,115.55
2023-02-03T02:49:46.696Z,122.53
2023-02-03T02:52:17.233Z,120.05
2023-02-03T02:54:51.592Z,127.90
2023-02-03T02:57:22.595Z,123.15
2023-02-03T02:59:50.614Z,126.57
2023-02-03T03:02:19.136Z,131.02
2023-02-03T03:04:50.114Z,123.28
2023-02-03T03:07:25.552Z,122.05
2023-02-03T03:10:03.174Z,134.50
2023-02-03T03:12:37.519Z,125.10
2023-02-03T03:15:10.814Z,137.60
2023-02-03T03:20:25.433Z,125.20
2023-02-03T03:23:01.873Z,137.60
2023-02-03T03:25:39.638Z,123.10
2023-02-03T03:28:13.865Z,125.95
2023-02-03T03:30:42.287Z,130.77
2023-02-03T03:33:10.884Z,122.38
2023-02-03T03:35:55.105Z,121.65
2023-02-03T03:38:46.512Z,112.95
2023-02-03T03:41:36.751Z,109.90
2023-02-03T03:44:09.692Z,103.53
2023-02-03T03:46:48.257Z,102.55
2023-02-03T03:49:19.113Z,102.97
2023-02-03T03:51:52.121Z,98.45
2023-02-03T03:54:24.107Z,90.65
2023-02-03T03:57:00.296Z,88.82
2023-02-03T03:59:33.531Z,96.30
2023-02-03T04:02:05.024Z,94.40
2023-02-03T04:04:36.914Z,93.47
2023-02-03T04:07:04.965Z,102.93
2023-02-03T04:09:36.725Z,87.35
2023-02-03T04:12:06.733Z,86.55
2023-02-03T04:14:40.062Z,90.15
2023-02-03T04:17:09.702Z,94.43
2023-02-03T04:19:37.940Z,82.07
2023-02-03T04:22:06.993Z,91.13
2023-02-03T04:24:35.271Z,90.60
2023-02-03T04:27:05.140Z,86.03
2023-02-03T04:29:33.782Z,88.05
2023-02-03T04:32:01.680Z,79.72
2023-02-03T04:34:29.924Z,95.25
2023-02-03T04:36:57.757Z,83.72
2023-02-03T04:39:25.962Z,78.15
2023-02-03T04:41:53.841Z,90.13
2023-02-03T04:44:22.045Z,86.22
2023-02-03T04:46:49.909Z,97.53
2023-02-03T04:49:18.292Z,90.05
2023-02-03T04:51:49.481Z,91.50
2023-02-03T04:54:17.940Z,93.40
2023-02-03T04:56:45.822Z,88.65
2023-02-03T04:59:14.062Z,89.35
2023-02-03T05:01:42.006Z,86.13
2023-02-03T05:04:10.386Z,86.32
2023-02-03T05:06:38.322Z,83.97
2023-02-03T05:09:06.885Z,86.80
2023-02-03T05:11:34.876Z,90.82
2023-02-03T05:14:03.531Z,94.40
2023-02-03T05:16:31.451Z,83.47
2023-02-03T05:18:59.754Z,83.68
2023-02-03T05:21:27.605Z,92.00
2023-02-03T05:23:55.797Z,91.18
2023-02-03T05:26:23.692Z,84.00
2023-02-03T05:28:53.177Z,94.35
2023-02-03T05:31:21.679Z,91.63
2023-02-03T05:33:49.933Z,92.95
2023-02-03T05:36:17.804Z,97.30
2023-02-03T05:38:46.052Z,94.30
2023-02-03T05:41:32.418Z,93.82
2023-02-03T05:44:00.704Z,99.07
2023-02-03T05:46:28.759Z,103.03
2023-02-03T05:48:56.496Z,104.93
2023-02-03T05:51:25.257Z,96.85
2023-02-03T05:53:54.187Z,95.55
2023-02-03T05:56:22.544Z,101.05
2023-02-03T05:58:53.551Z,99.05
2023-02-03T06:01:22.080Z,117.80
2023-02-03T06:03:50.217Z,100.00
2023-02-03T06:06:18.685Z,121.25
2023-02-03T06:08:46.562Z,118.65
2023-02-03T06:11:14.833Z,112.20
2023-02-03T06:13:42.701Z,118.97
2023-02-03T06:16:10.990Z,102.03
2023-02-03T06:18:38.922Z,112.22
2023-02-03T06:21:07.094Z,117.95
2023-02-03T06:23:35.034Z,121.18
2023-02-03T06:26:03.244Z,138.23
2023-02-03T06:28:33.885Z,129.85
2023-02-03T06:31:02.259Z,126.47
2023-02-03T06:33:30.659Z,132.50
2023-02-03T06:35:59.293Z,125.47
2023-02-03T06:38:27.270Z,128.10
2023-02-03T06:40:55.488Z,142.45
2023-02-03T06:43:23.410Z,131.68
2023-02-03T06:45:51.729Z,136.35
2023-02-03T06:48:19.607Z,151.75
2023-02-03T06:50:48.846Z,144.88
2023-02-03T06:53:17.301Z,149.27
2023-02-03T06:55:45.562Z,172.52
2023-02-03T06:58:13.421Z,231.75
2023-02-03T07:00:41.582Z,281.38
2023-02-03T07:03:09.472Z,312.23
2023-02-03T07:05:38.017Z,201.02
2023-02-03T07:08:06.072Z,208.85
2023-02-03T07:10:34.314Z,218.82
2023-02-03T07:13:04.186Z,766.85
2023-02-03T07:15:32.522Z,263.00
2023-02-03T07:18:00.351Z,228.55
2023-02-03T07:20:29.786Z,287.63
2023-02-03T07:22:58.441Z,498.17
2023-02-03T07:25:26.652Z,548.55
2023-02-03T07:27:54.965Z,351.73
2023-02-03T07:30:23.394Z,321.25
2023-02-03T07:32:52.869Z,284.92
2023-02-03T07:35:21.802Z,374.50
2023-02-03T07:37:49.631Z,313.95
2023-02-03T07:40:18.145Z,195.35
2023-02-03T07:42:50.289Z,221.07
2023-02-03T07:45:19.171Z,307.55
2023-02-03T07:47:46.937Z,441.77
2023-02-03T07:50:15.183Z,333.42
2023-02-03T07:52:42.973Z,540.15
2023-02-03T07:55:11.535Z,229.88
2023-02-03T07:57:43.851Z,814.13
2023-02-03T08:00:14.538Z,224.43
2023-02-03T08:02:43.573Z,234.80
2023-02-03T08:05:12.847Z,239.35
2023-02-03T08:07:41.604Z,244.30
2023-02-03T08:10:12.434Z,275.50
2023-02-03T08:12:40.479Z,347.98
2023-02-03T08:15:08.829Z,506.77
2023-02-03T08:17:40.256Z,582.60
2023-02-03T08:20:11.761Z,837.58
2023-02-03T08:22:39.857Z,361.33
2023-02-03T08:25:08.436Z,698.13
2023-02-03T08:27:36.641Z,544.05
2023-02-03T08:30:05.769Z,245.07
2023-02-03T08:32:34.613Z,352.95
2023-02-03T08:35:02.480Z,182.88
2023-02-03T08:37:32.843Z,275.85
2023-02-03T08:40:00.798Z,220.02
2023-02-03T08:42:29.076Z,420.90
2023-02-03T08:44:56.975Z,228.30
2023-02-03T08:47:26.119Z,342.38
2023-02-03T08:49:53.950Z,265.83
2023-02-03T08:52:22.814Z,264.75
2023-02-03T08:54:50.780Z,215.70
2023-02-03T08:57:19.087Z,191.05
2023-02-03T08:59:47.132Z,238.98
2023-02-03T09:02:18.157Z,226.90
2023-02-03T09:04:47.646Z,200.60
2023-02-03T09:07:16.945Z,193.75
2023-02-03T09:09:44.924Z,174.35
2023-02-03T09:12:13.598Z,169.48
2023-02-03T09:14:41.462Z,170.25
2023-02-03T09:17:12.118Z,223.43
2023-02-03T09:19:40.071Z,220.50
2023-02-03T09:22:08.604Z,182.88
2023-02-03T09:24:36.543Z,266.65
2023-02-03T09:27:05.074Z,232.93
2023-02-03T09:29:33.006Z,243.25
2023-02-03T09:32:07.111Z,170.30
2023-02-03T09:37:04.576Z,180.70
2023-02-03T09:39:32.581Z,166.27
2023-02-03T09:42:13.599Z,156.68
2023-02-03T09:44:59.478Z,167.27
2023-02-03T09:47:32.861Z,161.25
2023-02-03T09:50:05.378Z,167.77
2023-02-03T09:52:40.096Z,165.53
2023-02-03T09:55:25.242Z,178.00
2023-02-03T09:57:57.603Z,183.48
2023-02-03T10:00:30.667Z,158.30
2023-02-03T10:03:01.595Z,163.48
2023-02-03T10:06:01.850Z,171.05
2023-02-03T10:08:42.015Z,160.75
2023-02-03T10:11:24.860Z,166.52
2023-02-03T10:14:01.009Z,193.83
2023-02-03T10:16:50.625Z,171.95
2023-02-03T10:19:27.609Z,178.75
2023-02-03T10:22:00.700Z,170.43
2023-02-03T10:24:56.699Z,178.27
2023-02-03T10:27:26.441Z,179.27
2023-02-03T10:30:22.732Z,177.02
2023-02-03T10:33:09.297Z,183.57
2023-02-03T10:35:52.146Z,185.25
2023-02-03T10:38:44.519Z,180.20
2023-02-03T10:41:13.619Z,176.98
2023-02-03T10:43:47.730Z,183.27
2023-02-03T10:46:21.326Z,183.05
2023-02-03T10:48:49.798Z,185.18
2023-02-03T10:51:37.118Z,180.75
2023-02-03T10:54:05.539Z,165.20
2023-02-03T10:56:38.198Z,172.93
2023-02-03T10:59:07.778Z,188.65
2023-02-03T11:01:45.491Z,191.88
2023-02-03T11:04:27.104Z,194.82
2023-02-03T11:07:06.346Z,191.63
2023-02-03T11:09:37.789Z,176.98
2023-02-03T11:12:17.260Z,189.45
2023-02-03T11:14:50.023Z,200.63
2023-02-03T11:17:30.981Z,188.18
2023-02-03T11:20:19.428Z,183.38
2023-02-03T11:22:49.719Z,195.93
2023-02-03T11:25:22.936Z,177.68
2023-02-03T11:27:51.627Z,181.68
2023-02-03T11:30:27.904Z,177.27
2023-02-03T11:32:57.499Z,168.15
2023-02-03T11:35:30.108Z,175.40
2023-02-03T11:38:01.068Z,182.98
2023-02-03T11:40:38.719Z,171.75
2023-02-03T11:43:18.212Z,176.00
2023-02-03T11:45:49.205Z,169.98
2023-02-03T11:48:33.562Z,175.25
2023-02-03T11:51:24.967Z,184.43
2023-02-03T11:54:06.809Z,171.05
2023-02-03T11:57:10.021Z,169.52
2023-02-03T12:00:01.612Z,180.93
2023-02-03T12:03:05.605Z,178.88
2023-02-03T12:06:04.949Z,180.63
2023-02-03T12:08:52.399Z,173.10
2023-02-03T12:11:39.229Z,186.13
2023-02-03T12:14:31.609Z,177.65
2023-02-03T12:17:23.961Z,175.38
2023-02-03T12:20:06.875Z,174.85
2023-02-03T12:22:51.000Z,165.32
2023-02-03T12:25:50.302Z,178.23
2023-02-03T12:28:41.677Z,178.60
2023-02-03T12:31:51.122Z,157.75
2023-02-03T12:34:32.429Z,173.40
2023-02-03T12:37:10.562Z,163.07
2023-02-03T12:39:44.810Z,166.25
2023-02-03T12:42:21.270Z,169.90
2023-02-03T12:45:00.211Z,165.52
2023-02-03T12:47:37.132Z,159.02
2023-02-03T12:50:18.704Z,167.73
2023-02-03T12:53:29.254Z,182.90
2023-02-03T12:56:03.118Z,176.07
2023-02-03T12:58:42.467Z,178.38
2023-02-03T13:01:24.754Z,175.63
2023-02-03T13:04:21.619Z,162.00
2023-02-03T13:07:03.311Z,162.93
2023-02-03T13:09:49.351Z,169.15
2023-02-03T13:12:29.449Z,171.60
2023-02-03T13:15:24.932Z,164.50
2023-02-03T13:18:26.686Z,161.27
2023-02-03T13:20:57.665Z,171.32
2023-02-03T13:23:26.785Z,168.32
2023-02-03T13:26:13.519Z,170.63
2023-02-03T13:29:02.056Z,182.32
2023-02-03T13:32:00.840Z,169.55
2023-02-03T13:34:45.817Z,178.35
2023-02-03T13:37:25.643Z,171.68
2023-02-03T13:40:06.968Z,171.68
2023-02-03T13:42:41.026Z,176.45
2023-02-03T13:45:24.068Z,171.45
2023-02-03T13:47:56.521Z,169.65
2023-02-03T13:50:29.260Z,174.02
2023-02-03T13:53:03.191Z,163.52
2023-02-03T13:55:54.947Z,155.02
2023-02-03T13:58:30.666Z,162.45
2023-02-03T14:01:29.507Z,164.00
2023-02-03T14:03:58.716Z,155.00
2023-02-03T14:06:52.897Z,166.38
2023-02-03T14:09:31.772Z,172.63
2023-02-03T14:12:32.789Z,168.63
2023-02-03T14:15:14.047Z,154.68
2023-02-03T14:17:42.332Z,169.40
2023-02-03T14:20:43.834Z,160.80
2023-02-03T14:23:19.726Z,164.40
2023-02-03T14:25:55.958Z,161.30
2023-02-03T14:31:12.801Z,158.95
2023-02-03T14:33:59.068Z,165.73
2023-02-03T14:36:34.069Z,166.70
2023-02-03T14:39:27.835Z,169.52
2023-02-03T14:42:13.676Z,169.07
2023-02-03T14:45:07.355Z,163.27
2023-02-03T14:47:42.257Z,162.75
2023-02-03T14:50:49.156Z,156.20
2023-02-03T14:54:01.378Z,156.68
2023-02-03T14:56:55.401Z,152.70
2023-02-03T14:59:26.678Z,166.00
2023-02-03T15:02:04.260Z,166.38
2023-02-03T15:04:32.103Z,163.95
2023-02-03T15:07:00.325Z,179.70
2023-02-03T15:09:37.446Z,171.10
2023-02-03T15:12:26.412Z,187.68
2023-02-03T15:14:54.539Z,196.07
2023-02-03T15:17:25.659Z,185.35
2023-02-03T15:19:54.084Z,190.50
2023-02-03T15:22:28.038Z,182.40
2023-02-03T15:24:59.313Z,183.35
2023-02-03T15:27:30.267Z,179.23
2023-02-03T15:29:59.496Z,178.93
2023-02-03T15:32:35.511Z,181.65
2023-02-03T15:35:07.451Z,190.02
2023-02-03T15:37:41.561Z,185.68
2023-02-03T15:43:03.617Z,201.07
2023-02-03T15:45:46.127Z,205.27
2023-02-03T15:48:44.669Z,210.90
2023-02-03T15:51:44.330Z,207.27
2023-02-03T15:54:24.780Z,198.27
2023-02-03T15:57:00.125Z,198.90
2023-02-03T15:59:37.295Z,199.95
2023-02-03T16:02:31.729Z,192.95
2023-02-03T16:05:19.627Z,213.95
2023-02-03T16:07:47.477Z,211.77
2023-02-03T16:10:31.823Z,201.88
2023-02-03T16:13:18.200Z,210.68
2023-02-03T16:16:04.099Z,218.38
2023-02-03T16:18:36.287Z,219.43
2023-02-03T16:21:05.858Z,216.75
2023-02-03T16:23:33.998Z,220.95
2023-02-03T16:26:26.643Z,212.52
2023-02-03T16:29:27.277Z,197.48
2023-02-03T16:32:14.887Z,195.82
2023-02-03T16:35:01.595Z,224.55
2023-02-03T16:37:51.917Z,198.82
2023-02-03T16:40:41.406Z,210.27
2023-02-03T16:43:31.905Z,214.90
2023-02-03T16:46:19.505Z,244.40
2023-02-03T16:49:06.272Z,200.10
2023-02-03T16:51:39.870Z,206.27
2023-02-03T16:54:18.563Z,203.15
2023-02-03T16:56:46.416Z,210.13
2023-02-03T16:59:14.618Z,219.60
2023-02-03T17:01:42.518Z,213.88
2023-02-03T17:04:11.876Z,217.70
2023-02-03T17:06:41.448Z,215.60
2023-02-03T17:09:10.025Z,223.43
2023-02-03T17:11:37.928Z,294.92
2023-02-03T17:14:06.251Z,247.30
2023-02-03T17:16:34.213Z,233.18
2023-02-03T17:19:02.751Z,226.93
2023-02-03T17:21:31.196Z,221.73
2023-02-03T17:24:00.890Z,198.45
2023-02-03T17:26:28.849Z,207.77
2023-02-03T17:29:03.622Z,213.82
2023-02-03T17:31:32.458Z,213.90
2023-02-03T17:34:00.867Z,200.18
2023-02-03T17:36:28.799Z,191.70
2023-02-03T17:55:34.406Z,202.27
2023-02-03T17:58:02.510Z,193.40
2023-02-03T18:00:31.411Z,203.05
2023-02-03T18:02:59.462Z,202.43
2023-02-03T18:05:29.078Z,207.77
2023-02-03T18:07:57.013Z,206.88
2023-02-03T18:10:25.564Z,206.57
2023-02-03T18:12:53.514Z,209.85
2023-02-03T18:15:21.655Z,194.75
2023-02-03T18:17:49.468Z,205.95
2023-02-03T18:20:17.993Z,208.02
2023-02-03T18:22:45.879Z,211.30
2023-02-03T18:25:17.391Z,197.95
2023-02-03T18:27:45.348Z,211.13
2023-02-03T18:30:15.233Z,195.07
2023-02-03T18:32:43.126Z,201.45
2023-02-03T18:35:14.155Z,201.93
2023-02-03T18:37:42.004Z,207.73
2023-02-03T18:40:12.763Z,190.82
2023-02-03T18:42:40.797Z,201.82
2023-02-03T18:45:09.864Z,203.93
2023-02-03T18:47:37.872Z,199.57
2023-02-03T18:50:07.028Z,222.50
2023-02-03T18:52:35.111Z,199.48
2023-02-03T18:55:03.581Z,208.13
2023-02-03T18:57:31.542Z,204.02
2023-02-03T18:59:59.848Z,205.35
2023-02-03T19:02:28.246Z,195.02
2023-02-03T19:04:56.624Z,199.65
2023-02-03T19:07:24.805Z,195.13
2023-02-03T19:09:52.902Z,194.07
2023-02-03T19:12:20.705Z,188.85
2023-02-03T19:14:48.880Z,177.80
2023-02-03T19:17:16.814Z,175.05
2023-02-03T19:19:45.018Z,189.52
2023-02-03T19:22:13.268Z,194.38
2023-02-03T19:24:41.566Z,184.15
2023-02-03T19:27:09.412Z,180.82
2023-02-03T19:29:39.183Z,195.05
2023-02-03T19:32:12.936Z,173.48
2023-02-03T19:34:41.194Z,182.23
2023-02-03T19:37:09.299Z,171.50
2023-02-03T19:39:37.563Z,166.68
2023-02-03T19:42:05.658Z,175.88
2023-02-03T19:44:34.195Z,183.07
2023-02-03T19:47:03.928Z,172.93
2023-02-03T19:49:32.218Z,179.13
2023-02-03T19:52:00.152Z,177.70
2023-02-03T19:54:28.381Z,175.10
2023-02-03T19:56:56.238Z,179.23
2023-02-03T19:59:24.529Z,169.18
2023-02-03T20:01:52.475Z,168.48
2023-02-03T20:04:20.928Z,158.13
2023-02-03T20:06:48.789Z,184.48
2023-02-03T20:09:16.998Z,172.60
2023-02-03T20:11:44.912Z,168.98
2023-02-03T20:14:13.968Z,166.55
2023-02-03T20:16:43.207Z,166.27
2023-02-03T20:19:11.746Z,168.57
2023-02-03T20:21:39.630Z,174.43
2023-02-03T20:24:07.868Z,167.15
2023-02-03T20:26:35.720Z,170.43
2023-02-03T20:29:04.068Z,164.48
2023-02-03T20:31:32.114Z,167.15
2023-02-03T20:34:00.334Z,170.68
2023-02-03T20:36:28.228Z,173.80
2023-02-03T20:38:56.741Z,181.38
2023-02-03T20:41:24.671Z,172.18
2023-02-03T20:43:52.820Z,170.48
2023-02-03T20:46:20.834Z,176.82
2023-02-03T20:48:49.365Z,173.52
2023-02-03T20:51:21.389Z,166.95
2023-02-03T20:53:50.220Z,179.38
2023-02-03T20:56:21.999Z,174.95
2023-02-03T20:58:50.335Z,175.57
2023-02-03T21:01:21.545Z,173.00
2023-02-03T21:04:08.422Z,165.32
2023-02-03T21:06:36.555Z,171.80
2023-02-03T21:09:20.080Z,163.35
2023-02-03T21:11:48.016Z,171.03
2023-02-03T21:14:22.472Z,173.38
2023-02-03T21:16:51.971Z,168.15
2023-02-03T21:19:34.157Z,166.25
2023-02-03T21:22:17.736Z,165.45
2023-02-03T21:24:49.721Z,164.65
2023-02-03T21:27:32.584Z,173.80
2023-02-03T21:30:17.674Z,168.43
2023-02-03T21:32:45.530Z,164.07
2023-02-03T21:35:39.934Z,171.65
2023-02-03T21:38:23.111Z,174.93
2023-02-03T21:40:51.383Z,181.02
2023-02-03T21:43:21.035Z,177.65
2023-02-03T21:45:49.666Z,168.75
2023-02-03T21:48:32.696Z,182.73
2023-02-03T21:51:04.106Z,176.55
2023-02-03T21:53:36.059Z,172.77
2023-02-03T21:56:22.646Z,180.15
2023-02-03T21:58:52.223Z,168.95
2023-02-03T22:01:23.065Z,172.15
2023-02-03T22:03:53.973Z,170.98
2023-02-03T22:06:28.091Z,184.77
2023-02-03T22:08:58.108Z,187.18
2023-02-03T22:11:30.130Z,185.88
2023-02-03T22:13:58.026Z,185.82
2023-02-03T22:16:26.310Z,178.55
2023-02-03T22:18:54.278Z,183.55
2023-02-03T22:21:22.507Z,179.32
2023-02-03T22:23:50.330Z,193.50
2023-02-03T22:26:19.047Z,180.77
2023-02-03T22:28:47.325Z,191.18
2023-02-03T22:31:16.239Z,198.07
2023-02-03T22:33:44.479Z,179.45
2023-02-03T22:36:13.567Z,186.93
2023-02-03T22:38:42.633Z,185.88
2023-02-03T22:41:13.324Z,197.20
2023-02-03T22:43:41.502Z,196.85
2023-02-03T22:46:09.786Z,194.13
2023-02-03T22:48:37.685Z,189.85
2023-02-03T22:51:06.331Z,185.35
2023-02-03T22:53:35.079Z,190.98
2023-02-03T22:56:03.354Z,199.80
2023-02-03T22:58:31.284Z,191.27
2023-02-03T23:00:59.664Z,189.38
2023-02-03T23:03:27.873Z,186.07
2023-02-03T23:05:56.738Z,192.90
2023-02-03T23:08:25.222Z,190.77
2023-02-03T23:10:53.467Z,174.63
2023-02-03T23:13:21.405Z,187.85
2023-02-03T23:15:49.691Z,180.77
2023-02-03T23:18:17.560Z,179.25
2023-02-03T23:20:46.009Z,196.52
2023-02-03T23:23:14.579Z,189.40
2023-02-03T23:25:42.860Z,191.80
2023-02-03T23:28:10.804Z,172.48
2023-02-03T23:30:39.054Z,182.82
2023-02-03T23:33:07.125Z,192.57
2023-02-03T23:35:47.730Z,191.30
2023-02-03T23:38:17.206Z,179.07
2023-02-03T23:40:46.000Z,183.75
2023-02-03T23:43:14.814Z,194.55
2023-02-03T23:45:43.008Z,185.52
2023-02-03T23:48:11.245Z,198.73
2023-02-03T23:50:39.565Z,180.80
2023-02-03T23:53:07.433Z,193.85
2023-02-03T23:55:36.585Z,177.32
2023-02-03T23:58:05.329Z,177.10
